createdAt,value
2019-04-20T00:01:16.797Z,11.10
2019-04-20T00:03:45.639Z,11.00
2019-04-20T00:06:21.502Z,11.00
2019-04-20T00:08:59.926Z,10.90
2019-04-20T00:11:39.800Z,10.80
2019-04-20T00:14:08.300Z,10.80
2019-04-20T00:16:35.683Z,10.80
2019-04-20T00:19:09.219Z,10.80
2019-04-20T00:21:52.281Z,10.80
2019-04-20T00:24:32.402Z,10.70
2019-04-20T00:27:25.466Z,10.70
2019-04-20T00:29:56.171Z,10.70
2019-04-20T00:32:18.568Z,10.70
2019-04-20T00:34:45.083Z,10.60
2019-04-20T00:37:15.226Z,10.50
2019-04-20T00:39:48.866Z,10.50
2019-04-20T00:42:32.510Z,10.50
2019-04-20T00:45:02.337Z,10.40
2019-04-20T00:47:37.185Z,10.30
2019-04-20T00:50:19.587Z,10.20
2019-04-20T00:52:51.780Z,10.20
2019-04-20T00:55:08.340Z,10.10
2019-04-20T00:57:48.720Z,10.10
2019-04-20T01:00:32.793Z,10.20
2019-04-20T01:03:02.329Z,10.10
2019-04-20T01:05:56.736Z,10.10
2019-04-20T01:08:14.937Z,10.10
2019-04-20T01:10:51.472Z,10.10
2019-04-20T01:13:24.833Z,10.00
2019-04-20T01:16:03.306Z,10.00
2019-04-20T01:18:32.095Z,10.00
2019-04-20T01:21:11.819Z,9.90
2019-04-20T01:23:42.961Z,9.90
2019-04-20T01:26:15.694Z,9.80
2019-04-20T01:28:58.481Z,9.80
2019-04-20T01:31:28.495Z,9.70
2019-04-20T01:34:00.674Z,9.60
2019-04-20T01:36:48.001Z,9.60
2019-04-20T01:39:11.184Z,9.60
2019-04-20T01:41:32.976Z,9.50
2019-04-20T01:44:05.094Z,9.50
2019-04-20T01:46:39.130Z,9.40
2019-04-20T01:49:15.505Z,9.40
2019-04-20T01:51:53.822Z,9.40
2019-04-20T01:54:31.201Z,9.30
2019-04-20T01:57:08.241Z,9.30
2019-04-20T01:59:47.029Z,9.20
2019-04-20T02:02:28.323Z,9.20
2019-04-20T02:05:15.865Z,9.20
2019-04-20T02:07:47.161Z,9.20
2019-04-20T02:10:17.364Z,9.20
2019-04-20T02:12:55.647Z,9.10
2019-04-20T02:15:32.727Z,9.00
2019-04-20T02:18:08.922Z,9.10
2019-04-20T02:20:48.742Z,9.10
2019-04-20T02:23:17.313Z,9.00
2019-04-20T02:25:37.686Z,9.00
2019-04-20T02:28:27.168Z,9.00
2019-04-20T02:33:57.360Z,8.90
2019-04-20T02:44:14.362Z,8.80
2019-04-20T02:46:50.545Z,8.80
2019-04-20T02:52:18.344Z,8.80
2019-04-20T03:01:52.135Z,8.60
2019-04-20T03:04:17.326Z,8.50
2019-04-20T03:06:57.151Z,8.50
2019-04-20T03:09:41.811Z,8.40
2019-04-20T03:12:11.607Z,8.20
2019-04-20T03:14:35.271Z,8.20
2019-04-20T03:17:21.680Z,8.10
2019-04-20T03:19:41.133Z,8.20
2019-04-20T03:22:35.222Z,8.20
2019-04-20T03:25:14.676Z,8.20
2019-04-20T03:27:30.594Z,8.20
2019-04-20T03:31:18.448Z,8.10
2019-04-20T03:35:46.911Z,8.10
2019-04-20T03:38:11.808Z,8.00
2019-04-20T03:40:42.518Z,8.00
2019-04-20T03:42:59.125Z,8.00
2019-04-20T03:45:39.571Z,7.90
2019-04-20T03:48:16.301Z,7.90
2019-04-20T03:50:56.704Z,7.90
2019-04-20T03:53:37.976Z,7.90
2019-04-20T03:56:30.985Z,7.90
2019-04-20T03:59:16.152Z,7.80
2019-04-20T04:04:57.577Z,7.70
2019-04-20T04:07:19.507Z,7.70
2019-04-20T04:10:03.024Z,7.70
2019-04-20T04:12:53.047Z,7.80
2019-04-20T04:15:27.478Z,7.90
2019-04-20T04:18:06.039Z,7.90
2019-04-20T04:20:37.661Z,7.90
2019-04-20T04:23:22.234Z,7.90
2019-04-20T04:25:55.601Z,7.90
2019-04-20T04:28:35.120Z,7.90
2019-04-20T04:31:07.929Z,7.90
2019-04-20T04:36:17.682Z,8.00
2019-04-20T04:39:03.823Z,8.00
2019-04-20T04:41:28.222Z,8.10
2019-04-20T04:44:03.532Z,8.20
2019-04-20T04:46:20.704Z,8.30
2019-04-20T04:48:58.329Z,8.30
2019-04-20T04:51:38.492Z,8.40
2019-04-20T04:54:13.838Z,8.40
2019-04-20T04:56:35.679Z,8.50
2019-04-20T04:59:27.558Z,8.60
2019-04-20T05:02:00.512Z,8.60
2019-04-20T05:05:16.124Z,8.70
2019-04-20T05:07:43.837Z,8.80
2019-04-20T05:10:05.682Z,8.80
2019-04-20T05:12:37.672Z,8.90
2019-04-20T05:15:16.177Z,9.00
2019-04-20T05:18:02.109Z,9.10
2019-04-20T05:20:38.759Z,9.20
2019-04-20T05:23:12.973Z,9.30
2019-04-20T05:26:26.820Z,9.40
2019-04-20T05:28:33.384Z,9.50
2019-04-20T05:30:59.895Z,9.50
2019-04-20T05:33:47.835Z,9.60
2019-04-20T05:36:17.383Z,9.80
2019-04-20T05:38:55.790Z,9.70
2019-04-20T05:41:24.049Z,9.80
2019-04-20T05:43:59.394Z,10.00
2019-04-20T05:46:37.445Z,10.20
2019-04-20T05:49:17.133Z,10.20
2019-04-20T05:51:44.391Z,10.40
2019-04-20T05:54:26.860Z,10.60
2019-04-20T05:56:52.519Z,11.00
2019-04-20T05:59:21.866Z,11.50
2019-04-20T06:04:46.301Z,12.50
2019-04-20T06:07:08.251Z,13.10
2019-04-20T06:09:42.253Z,13.60
2019-04-20T06:12:28.536Z,14.20
2019-04-20T06:14:55.855Z,14.90
2019-04-20T06:20:48.456Z,16.10
2019-04-20T06:23:50.934Z,16.70
2019-04-20T06:26:40.060Z,17.20
2019-04-20T06:28:51.868Z,18.00
2019-04-20T06:31:31.089Z,18.50
2019-04-20T06:34:31.074Z,19.20
2019-04-20T06:36:57.230Z,19.90
2019-04-20T06:39:54.836Z,20.60
2019-04-20T06:45:04.469Z,21.20
2019-04-20T06:47:22.798Z,21.90
2019-04-20T06:49:43.750Z,22.20
2019-04-20T06:52:38.542Z,23.10
2019-04-20T06:55:19.918Z,23.00
2019-04-20T06:58:07.508Z,23.30
2019-04-20T07:00:35.033Z,24.20
2019-04-20T07:03:05.717Z,24.30
2019-04-20T07:05:42.104Z,24.90
2019-04-20T07:08:28.948Z,25.00
2019-04-20T07:10:58.333Z,25.50
2019-04-20T07:13:18.888Z,25.50
2019-04-20T07:16:18.151Z,25.70
2019-04-20T07:19:15.223Z,25.90
2019-04-20T07:24:55.100Z,26.70
2019-04-20T07:27:36.672Z,27.10
2019-04-20T07:30:07.630Z,27.20
2019-04-20T07:32:51.143Z,27.20
2019-04-20T07:35:18.605Z,27.00
2019-04-20T07:40:24.381Z,27.30
2019-04-20T07:43:10.085Z,27.80
2019-04-20T07:45:46.608Z,27.90
2019-04-20T07:48:11.324Z,28.50
2019-04-20T07:50:31.771Z,28.40
2019-04-20T07:53:08.660Z,29.20
2019-04-20T07:55:52.159Z,29.70
2019-04-20T07:58:10.797Z,30.50
2019-04-20T08:01:02.569Z,31.20
2019-04-20T08:03:44.502Z,31.20
2019-04-20T08:06:16.618Z,30.70
2019-04-20T08:08:57.079Z,31.40
2019-04-20T08:11:41.316Z,32.70
2019-04-20T08:14:12.530Z,32.90
2019-04-20T08:19:17.388Z,33.00
2019-04-20T08:21:55.165Z,33.90
2019-04-20T08:24:23.193Z,34.40
2019-04-20T08:26:49.687Z,33.90
2019-04-20T08:29:38.174Z,34.40
2019-04-20T08:32:21.422Z,34.90
2019-04-20T08:34:59.082Z,35.00
2019-04-20T08:37:37.921Z,35.20
2019-04-20T08:40:07.000Z,34.70
2019-04-20T08:42:51.150Z,35.60
2019-04-20T08:45:17.994Z,36.30
2019-04-20T08:47:49.902Z,37.20
2019-04-20T08:53:20.481Z,37.40
2019-04-20T08:55:25.116Z,38.50
2019-04-20T08:57:42.323Z,38.70
2019-04-20T09:00:18.302Z,38.30
2019-04-20T09:02:53.159Z,38.20
2019-04-20T09:05:34.992Z,37.50
2019-04-20T09:08:06.955Z,37.00
2019-04-20T09:10:43.949Z,37.50
2019-04-20T09:13:12.065Z,37.30
2019-04-20T09:15:36.225Z,37.00
2019-04-20T09:18:22.765Z,36.90
2019-04-20T09:20:58.455Z,37.00
2019-04-20T09:23:36.320Z,37.40
2019-04-20T09:26:15.062Z,37.40
2019-04-20T09:28:54.320Z,38.60
2019-04-20T09:31:33.173Z,37.20
2019-04-20T09:34:26.293Z,37.50
2019-04-20T09:37:41.296Z,37.50
2019-04-20T09:40:32.140Z,37.80
2019-04-20T09:42:49.952Z,38.10
2019-04-20T09:45:35.146Z,37.80
2019-04-20T09:48:00.547Z,37.90
2019-04-20T09:50:56.520Z,37.60
2019-04-20T09:53:22.068Z,38.00
2019-04-20T09:55:56.824Z,37.40
2019-04-20T09:58:28.025Z,38.00
2019-04-20T10:01:01.820Z,39.00
2019-04-20T10:03:22.672Z,39.10
2019-04-20T10:05:55.822Z,38.70
2019-04-20T10:08:27.382Z,38.80
2019-04-20T10:10:59.562Z,39.10
2019-04-20T10:13:32.186Z,38.60
2019-04-20T10:16:05.788Z,39.90
2019-04-20T10:18:42.513Z,40.30
2019-04-20T10:21:11.761Z,39.00
2019-04-20T10:23:50.358Z,38.50
2019-04-20T10:26:22.651Z,38.50
2019-04-20T10:28:55.294Z,38.40
2019-04-20T10:31:28.498Z,38.20
2019-04-20T10:34:01.735Z,37.80
2019-04-20T10:36:41.633Z,37.40
2019-04-20T10:39:14.190Z,36.90
2019-04-20T10:41:51.194Z,37.90
2019-04-20T10:44:20.846Z,37.60
2019-04-20T10:46:53.367Z,37.00
2019-04-20T10:49:27.158Z,37.70
2019-04-20T10:51:59.887Z,37.20
2019-04-20T10:54:32.423Z,37.80
2019-04-20T10:57:05.724Z,38.50
2019-04-20T10:59:37.537Z,38.80
2019-04-20T11:02:09.890Z,37.50
2019-04-20T11:04:41.572Z,36.50
2019-04-20T11:07:13.007Z,36.80
2019-04-20T11:09:44.815Z,37.20
2019-04-20T11:12:16.846Z,39.00
2019-04-20T11:14:52.310Z,38.20
2019-04-20T11:17:24.609Z,37.20
2019-04-20T11:19:57.165Z,36.90
2019-04-20T11:22:28.766Z,36.40
2019-04-20T11:25:02.151Z,36.20
2019-04-20T11:27:34.191Z,36.60
2019-04-20T11:30:07.891Z,36.00
2019-04-20T11:32:40.253Z,36.60
2019-04-20T11:35:21.413Z,36.10
2019-04-20T11:37:44.986Z,36.50
2019-04-20T11:40:16.987Z,37.60
2019-04-20T11:42:48.032Z,38.40
2019-04-20T11:45:20.797Z,37.50
2019-04-20T11:47:53.699Z,38.10
2019-04-20T11:50:27.478Z,37.90
2019-04-20T11:52:59.386Z,37.50
2019-04-20T11:55:31.965Z,36.80
2019-04-20T11:58:04.055Z,37.10
2019-04-20T12:00:53.970Z,37.60
2019-04-20T12:03:24.787Z,37.90
2019-04-20T12:05:55.764Z,38.70
2019-04-20T12:08:27.057Z,38.90
2019-04-20T12:11:03.120Z,39.30
2019-04-20T12:13:31.325Z,39.20
2019-04-20T12:16:03.521Z,38.30
2019-04-20T12:18:35.874Z,38.80
2019-04-20T12:21:08.446Z,39.50
2019-04-20T12:23:40.359Z,38.80
2019-04-20T12:26:12.751Z,39.30
2019-04-20T12:28:45.409Z,39.50
2019-04-20T12:31:21.970Z,39.30
2019-04-20T12:33:50.764Z,39.00
2019-04-20T12:36:23.855Z,38.40
2019-04-20T12:38:57.085Z,39.00
2019-04-20T12:41:37.465Z,38.90
2019-04-20T12:44:03.895Z,38.90
2019-04-20T12:46:39.921Z,37.80
2019-04-20T12:49:12.124Z,37.60
2019-04-20T12:51:50.608Z,37.10
2019-04-20T12:54:18.683Z,37.70
2019-04-20T12:56:51.204Z,38.30
2019-04-20T12:59:23.618Z,37.60
2019-04-20T13:01:55.484Z,37.80
2019-04-20T13:04:27.446Z,37.30
2019-04-20T13:06:59.751Z,36.30
2019-04-20T13:09:37.166Z,36.70
2019-04-20T13:12:15.631Z,35.60
2019-04-20T13:15:40.550Z,34.80
2019-04-20T13:18:14.982Z,34.50
2019-04-20T13:20:47.999Z,34.50
2019-04-20T13:23:20.341Z,35.70
2019-04-20T13:25:52.962Z,35.40
2019-04-20T13:28:26.120Z,34.70
2019-04-20T13:30:57.867Z,35.10
2019-04-20T13:33:29.586Z,35.40
2019-04-20T13:36:01.891Z,35.00
2019-04-20T13:38:34.295Z,34.70
2019-04-20T13:41:06.324Z,34.20
2019-04-20T13:43:39.642Z,34.40
2019-04-20T13:46:13.288Z,34.60
2019-04-20T13:48:44.863Z,34.30
2019-04-20T13:51:18.852Z,33.30
2019-04-20T13:53:51.062Z,33.00
2019-04-20T13:56:25.750Z,33.90
2019-04-20T13:59:10.368Z,34.10
2019-04-20T14:01:50.755Z,34.70
2019-04-20T14:04:28.508Z,35.30
2019-04-20T14:07:01.760Z,34.50
2019-04-20T14:09:35.376Z,34.10
2019-04-20T14:12:17.551Z,33.50
2019-04-20T14:14:41.372Z,33.70
2019-04-20T14:17:13.310Z,33.20
2019-04-20T14:19:45.234Z,33.60
2019-04-20T14:22:18.771Z,33.50
2019-04-20T14:24:51.083Z,34.00
2019-04-20T14:27:24.602Z,34.00
2019-04-20T14:29:57.124Z,34.00
2019-04-20T14:32:29.526Z,33.70
2019-04-20T14:35:03.023Z,33.40
2019-04-20T14:37:35.979Z,33.60
2019-04-20T14:40:10.178Z,34.40
2019-04-20T14:42:49.496Z,34.90
2019-04-20T14:45:18.593Z,34.80
2019-04-20T14:47:49.991Z,34.00
2019-04-20T14:50:23.340Z,33.10
2019-04-20T14:52:55.636Z,32.20
2019-04-20T14:55:31.119Z,31.60
2019-04-20T14:58:09.613Z,30.90
2019-04-20T15:00:53.090Z,30.40
2019-04-20T15:03:33.139Z,30.80
2019-04-20T15:06:05.719Z,31.80
2019-04-20T15:08:38.686Z,32.50
2019-04-20T15:11:10.083Z,32.50
2019-04-20T15:13:42.655Z,32.30
2019-04-20T15:16:15.006Z,31.80
2019-04-20T15:18:51.913Z,31.50
2019-04-20T15:21:24.538Z,30.70
2019-04-20T15:23:57.427Z,30.00
2019-04-20T15:26:28.770Z,30.20
2019-04-20T15:29:02.062Z,30.10
2019-04-20T15:31:34.452Z,30.10
2019-04-20T15:34:06.879Z,30.50
2019-04-20T15:36:40.129Z,30.50
2019-04-20T15:39:12.146Z,30.00
2019-04-20T15:41:45.249Z,29.50
2019-04-20T15:44:17.502Z,29.20
2019-04-20T15:46:49.048Z,28.10
2019-04-20T15:49:22.153Z,28.00
2019-04-20T15:51:55.379Z,28.20
2019-04-20T15:54:27.914Z,28.30
2019-04-20T15:57:04.577Z,28.00
2019-04-20T15:59:34.662Z,26.80
2019-04-20T16:02:17.699Z,26.20
2019-04-20T16:04:54.288Z,25.10
2019-04-20T16:07:25.928Z,24.70
2019-04-20T16:09:59.082Z,24.20
2019-04-20T16:12:33.006Z,24.00
2019-04-20T16:15:07.353Z,23.70
2019-04-20T16:17:45.365Z,23.50
2019-04-20T16:20:20.146Z,23.30
2019-04-20T16:22:48.919Z,23.10
2019-04-20T16:25:29.684Z,23.20
2019-04-20T16:28:01.655Z,23.20
2019-04-20T16:30:33.840Z,23.00
2019-04-20T16:33:06.298Z,22.80
2019-04-20T16:35:38.387Z,22.90
2019-04-20T16:38:10.725Z,22.80
2019-04-20T16:40:42.576Z,22.70
2019-04-20T16:43:21.083Z,22.60
2019-04-20T16:45:47.441Z,22.70
2019-04-20T16:48:22.027Z,22.50
2019-04-20T16:50:55.144Z,22.20
2019-04-20T16:53:26.920Z,21.90
2019-04-20T16:55:58.950Z,22.00
2019-04-20T16:58:31.514Z,22.00
2019-04-20T17:01:03.750Z,21.90
2019-04-20T17:03:44.397Z,21.80
2019-04-20T17:06:09.274Z,21.80
2019-04-20T17:08:42.734Z,21.80
2019-04-20T17:11:16.033Z,21.80
2019-04-20T17:13:52.668Z,21.80
2019-04-20T17:16:23.733Z,21.70
2019-04-20T17:18:57.282Z,21.60
2019-04-20T17:21:32.134Z,21.20
2019-04-20T17:24:03.639Z,21.10
2019-04-20T17:26:47.213Z,21.00
2019-04-20T17:29:30.205Z,20.80
2019-04-20T17:32:15.809Z,20.50
2019-04-20T17:35:01.808Z,20.50
2019-04-20T17:37:22.634Z,20.50
2019-04-20T17:40:19.180Z,20.30
2019-04-20T17:42:41.584Z,20.10
2019-04-20T17:45:10.411Z,19.70
2019-04-20T17:47:54.314Z,19.80
2019-04-20T17:50:33.080Z,19.80
2019-04-20T17:53:03.092Z,19.60
2019-04-20T17:55:40.437Z,19.50
2019-04-20T17:58:12.177Z,19.30
2019-04-20T18:01:30.313Z,19.10
2019-04-20T18:04:22.586Z,18.90
2019-04-20T18:06:40.182Z,18.70
2019-04-20T18:09:07.064Z,18.60
2019-04-20T18:11:37.244Z,18.40
2019-04-20T18:14:24.159Z,18.30
2019-04-20T18:17:05.220Z,18.10
2019-04-20T18:19:29.499Z,18.10
2019-04-20T18:22:03.679Z,18.00
2019-04-20T18:25:01.869Z,17.90
2019-04-20T18:27:32.003Z,17.80
2019-04-20T18:30:09.456Z,17.60
2019-04-20T18:32:25.301Z,17.70
2019-04-20T18:35:08.619Z,17.70
2019-04-20T18:37:44.178Z,17.90
2019-04-20T18:40:26.646Z,17.80
2019-04-20T18:43:00.012Z,17.80
2019-04-20T18:45:39.697Z,17.80
2019-04-20T18:48:18.435Z,17.70
2019-04-20T18:50:38.186Z,17.70
2019-04-20T18:53:03.746Z,17.70
2019-04-20T18:55:46.274Z,17.70
2019-04-20T18:58:11.331Z,17.40
2019-04-20T19:00:48.013Z,17.50
2019-04-20T19:03:27.067Z,17.40
2019-04-20T19:05:53.706Z,17.50
2019-04-20T19:08:35.012Z,17.40
2019-04-20T19:11:04.094Z,17.30
2019-04-20T19:13:42.368Z,17.20
2019-04-20T19:16:37.575Z,17.20
2019-04-20T19:19:23.536Z,17.20
2019-04-20T19:21:45.955Z,17.10
2019-04-20T19:24:21.809Z,17.00
2019-04-20T19:26:57.441Z,17.00
2019-04-20T19:29:33.045Z,17.00
2019-04-20T19:32:19.417Z,16.90
2019-04-20T19:34:47.464Z,16.80
2019-04-20T19:37:15.726Z,16.60
2019-04-20T19:39:54.422Z,16.50
2019-04-20T19:42:33.134Z,16.40
2019-04-20T19:45:01.657Z,16.30
2019-04-20T19:47:42.980Z,16.10
2019-04-20T19:50:25.248Z,16.00
2019-04-20T19:52:58.589Z,16.00
2019-04-20T19:55:20.588Z,15.90
2019-04-20T19:57:50.808Z,15.80
2019-04-20T20:00:11.640Z,15.70
2019-04-20T20:02:43.476Z,15.70
2019-04-20T20:05:17.732Z,15.70
2019-04-20T20:07:52.846Z,15.60
2019-04-20T20:10:29.899Z,15.50
2019-04-20T20:13:00.706Z,15.40
2019-04-20T20:15:34.905Z,15.30
2019-04-20T20:18:27.421Z,15.30
2019-04-20T20:20:56.265Z,15.20
2019-04-20T20:23:14.112Z,15.10
2019-04-20T20:25:48.148Z,14.90
2019-04-20T20:28:30.804Z,14.80
2019-04-20T20:31:04.436Z,14.70
2019-04-20T20:33:41.103Z,14.60
2019-04-20T20:36:06.231Z,14.60
2019-04-20T20:38:37.760Z,14.50
2019-04-20T20:41:17.266Z,14.40
2019-04-20T20:43:53.660Z,14.30
2019-04-20T20:46:23.992Z,14.20
2019-04-20T20:49:19.434Z,14.10
2019-04-20T20:51:46.951Z,14.10
2019-04-20T20:54:02.244Z,14.10
2019-04-20T20:56:30.941Z,14.00
2019-04-20T20:59:09.527Z,13.90
2019-04-20T21:01:46.450Z,13.80
2019-04-20T21:04:09.790Z,13.70
2019-04-20T21:06:42.573Z,13.70
2019-04-20T21:09:16.532Z,13.70
2019-04-20T21:11:52.006Z,13.60
2019-04-20T21:14:27.171Z,13.50
2019-04-20T21:17:02.738Z,13.50
2019-04-20T21:19:50.227Z,13.40
2019-04-20T21:22:11.509Z,13.30
2019-04-20T21:24:45.454Z,13.30
2019-04-20T21:27:19.815Z,13.20
2019-04-20T21:29:53.335Z,13.10
2019-04-20T21:32:24.252Z,13.10
2019-04-20T21:35:01.517Z,13.00
2019-04-20T21:37:30.583Z,12.90
2019-04-20T21:40:14.053Z,12.90
2019-04-20T21:42:45.515Z,12.80
2019-04-20T21:45:16.651Z,12.70
2019-04-20T21:47:43.540Z,12.70
2019-04-20T21:50:34.119Z,12.60
2019-04-20T21:52:51.846Z,12.50
2019-04-20T21:55:21.928Z,12.50
2019-04-20T21:57:57.360Z,12.50
2019-04-20T22:00:44.574Z,12.40
2019-04-20T22:03:14.848Z,12.40
2019-04-20T22:05:48.483Z,12.30
2019-04-20T22:08:20.613Z,12.20
2019-04-20T22:10:53.518Z,12.20
2019-04-20T22:13:32.415Z,12.20
2019-04-20T22:16:05.151Z,12.10
2019-04-20T22:18:46.437Z,12.10
2019-04-20T22:21:17.441Z,12.00
2019-04-20T22:23:54.923Z,12.00
2019-04-20T22:26:25.884Z,11.90
2019-04-20T22:28:47.959Z,11.80
2019-04-20T22:31:20.344Z,11.80
2019-04-20T22:33:52.426Z,11.80
2019-04-20T22:36:32.449Z,11.70
2019-04-20T22:39:15.657Z,11.70
2019-04-20T22:41:58.638Z,11.60
2019-04-20T22:44:27.098Z,11.60
2019-04-20T22:47:05.469Z,11.60
2019-04-20T22:49:52.913Z,11.50
2019-04-20T22:52:30.593Z,11.40
2019-04-20T22:55:01.132Z,11.40
2019-04-20T22:57:36.104Z,11.40
2019-04-20T23:00:04.734Z,11.30
2019-04-20T23:02:29.853Z,11.30
2019-04-20T23:05:02.707Z,11.30
2019-04-20T23:07:35.213Z,11.20
2019-04-20T23:10:08.791Z,11.10
2019-04-20T23:12:48.004Z,11.10
2019-04-20T23:15:14.461Z,11.00
2019-04-20T23:17:50.060Z,11.00
2019-04-20T23:20:25.294Z,10.90
2019-04-20T23:22:53.060Z,10.90
2019-04-20T23:25:25.105Z,10.90
2019-04-20T23:28:02.831Z,10.80
2019-04-20T23:30:35.761Z,10.80
2019-04-20T23:33:04.276Z,10.80
2019-04-20T23:35:37.623Z,10.70
2019-04-20T23:38:15.790Z,10.70
2019-04-20T23:40:45.825Z,10.70
2019-04-20T23:43:29.027Z,10.60
2019-04-20T23:46:22.250Z,10.60
2019-04-20T23:49:16.513Z,10.60
2019-04-20T23:52:03.632Z,10.50
2019-04-20T23:54:22.990Z,10.50
2019-04-20T23:56:48.114Z,10.50
2019-04-20T23:59:26.678Z,10.40
